createdAt,value
2023-03-20T00:02:19.464Z,6.40
2023-03-20T00:04:47.171Z,6.40
2023-03-20T00:07:14.852Z,6.40
2023-03-20T00:09:42.508Z,6.40
2023-03-20T00:12:26.290Z,6.40
2023-03-20T00:14:54.002Z,6.40
2023-03-20T00:17:21.887Z,6.40
2023-03-20T00:19:49.538Z,6.40
2023-03-20T00:22:17.087Z,6.40
2023-03-20T00:24:44.762Z,6.40
2023-03-20T00:27:17.657Z,6.40
2023-03-20T00:29:45.982Z,6.40
2023-03-20T00:32:15.040Z,6.40
2023-03-20T00:34:42.773Z,6.40
2023-03-20T00:37:14.381Z,6.40
2023-03-20T00:39:41.907Z,6.40
2023-03-20T00:42:22.230Z,6.40
2023-03-20T00:44:54.634Z,6.30
2023-03-20T00:47:25.510Z,6.30
2023-03-20T00:49:55.879Z,6.30
2023-03-20T00:52:24.327Z,6.30
2023-03-20T00:54:52.473Z,6.30
2023-03-20T00:57:29.386Z,6.30
2023-03-20T01:00:12.707Z,6.30
2023-03-20T01:02:40.415Z,6.30
2023-03-20T01:05:08.312Z,6.40
2023-03-20T01:07:36.060Z,6.40
2023-03-20T01:10:05.005Z,6.40
2023-03-20T01:12:33.054Z,6.40
2023-03-20T01:15:01.215Z,6.40
2023-03-20T01:17:30.067Z,6.40
2023-03-20T01:19:57.617Z,6.50
2023-03-20T01:22:25.466Z,6.40
2023-03-20T01:24:53.161Z,6.40
2023-03-20T01:27:21.553Z,6.50
2023-03-20T01:29:49.215Z,6.50
2023-03-20T01:32:19.076Z,6.50
2023-03-20T01:34:49.505Z,6.50
2023-03-20T01:37:27.973Z,6.50
2023-03-20T01:39:59.918Z,6.50
2023-03-20T01:42:28.809Z,6.50
2023-03-20T01:44:56.394Z,6.60
2023-03-20T01:47:26.132Z,6.50
2023-03-20T01:50:29.301Z,6.60
2023-03-20T01:53:28.237Z,6.60
2023-03-20T01:56:01.619Z,6.60
2023-03-20T01:58:46.767Z,6.60
2023-03-20T02:01:16.019Z,6.60
2023-03-20T02:06:25.129Z,6.60
2023-03-20T02:09:15.526Z,6.60
2023-03-20T02:11:46.303Z,6.60
2023-03-20T02:14:15.178Z,6.60
2023-03-20T02:16:54.668Z,6.70
2023-03-20T02:19:48.752Z,6.60
2023-03-20T02:22:25.600Z,6.70
2023-03-20T02:25:15.693Z,6.70
2023-03-20T02:28:22.055Z,6.70
2023-03-20T02:30:49.947Z,6.70
2023-03-20T02:33:36.434Z,6.60
2023-03-20T02:36:22.740Z,6.70
2023-03-20T02:39:11.545Z,6.70
2023-03-20T02:41:56.046Z,6.70
2023-03-20T02:44:35.826Z,6.70
2023-03-20T02:47:22.637Z,6.70
2023-03-20T02:50:24.025Z,6.70
2023-03-20T02:53:19.057Z,6.70
2023-03-20T02:55:54.615Z,6.70
2023-03-20T02:58:24.096Z,6.70
2023-03-20T03:01:02.159Z,6.70
2023-03-20T03:03:46.146Z,6.70
2023-03-20T03:06:26.200Z,6.80
2023-03-20T03:09:05.714Z,6.80
2023-03-20T03:11:36.249Z,6.80
2023-03-20T03:14:05.943Z,6.80
2023-03-20T03:16:37.512Z,6.80
2023-03-20T03:19:13.372Z,6.80
2023-03-20T03:21:41.740Z,6.80
2023-03-20T03:24:40.447Z,6.80
2023-03-20T03:27:27.628Z,6.80
2023-03-20T03:30:05.210Z,6.90
2023-03-20T03:32:38.423Z,6.90
2023-03-20T03:35:07.650Z,6.90
2023-03-20T03:37:42.559Z,6.90
2023-03-20T03:40:33.973Z,6.90
2023-03-20T03:43:14.737Z,7.00
2023-03-20T03:45:50.901Z,7.00
2023-03-20T03:48:46.222Z,7.00
2023-03-20T03:51:18.298Z,7.00
2023-03-20T03:54:21.224Z,7.00
2023-03-20T03:57:12.412Z,7.10
2023-03-20T03:59:48.348Z,7.10
2023-03-20T04:02:19.677Z,7.10
2023-03-20T04:04:51.721Z,7.10
2023-03-20T04:07:19.779Z,7.10
2023-03-20T04:09:47.445Z,7.20
2023-03-20T04:12:39.859Z,7.20
2023-03-20T04:15:12.237Z,7.20
2023-03-20T04:17:40.561Z,7.20
2023-03-20T04:20:11.175Z,7.20
2023-03-20T04:22:39.172Z,7.30
2023-03-20T04:25:15.599Z,7.30
2023-03-20T04:27:43.148Z,7.30
2023-03-20T04:30:21.702Z,7.30
2023-03-20T04:33:27.967Z,7.40
2023-03-20T04:36:02.625Z,7.30
2023-03-20T04:38:30.379Z,7.40
2023-03-20T04:40:57.964Z,7.40
2023-03-20T04:43:25.800Z,7.50
2023-03-20T04:45:53.479Z,7.50
2023-03-20T04:48:22.083Z,7.50
2023-03-20T04:50:51.009Z,7.60
2023-03-20T04:53:22.241Z,7.60
2023-03-20T04:55:52.245Z,7.60
2023-03-20T04:58:19.839Z,7.60
2023-03-20T05:00:48.656Z,7.60
2023-03-20T05:03:16.222Z,7.60
2023-03-20T05:05:44.987Z,7.70
2023-03-20T05:08:13.573Z,7.70
2023-03-20T05:10:42.006Z,7.70
2023-03-20T05:13:32.588Z,7.70
2023-03-20T05:16:17.715Z,7.70
2023-03-20T05:19:11.452Z,7.70
2023-03-20T05:21:50.927Z,7.70
2023-03-20T05:24:32.253Z,7.70
2023-03-20T05:27:18.957Z,7.70
2023-03-20T05:30:01.171Z,7.70
2023-03-20T05:32:52.806Z,7.70
2023-03-20T05:35:29.459Z,7.70
2023-03-20T05:38:04.186Z,7.70
2023-03-20T05:40:56.984Z,7.70
2023-03-20T05:43:44.043Z,7.70
2023-03-20T05:46:30.439Z,7.70
2023-03-20T05:48:57.995Z,7.70
2023-03-20T05:51:36.166Z,7.70
2023-03-20T05:54:11.981Z,7.70
2023-03-20T05:56:56.665Z,7.70
2023-03-20T05:59:48.525Z,7.70
2023-03-20T06:02:35.013Z,7.70
2023-03-20T06:05:10.847Z,7.80
2023-03-20T06:07:49.424Z,7.80
2023-03-20T06:10:17.678Z,7.90
2023-03-20T06:12:45.735Z,7.90
2023-03-20T06:15:13.670Z,8.00
2023-03-20T06:17:46.248Z,8.00
2023-03-20T06:20:15.630Z,8.00
2023-03-20T06:22:43.316Z,8.10
2023-03-20T06:25:11.995Z,8.10
2023-03-20T06:27:43.253Z,8.10
2023-03-20T06:30:11.921Z,8.10
2023-03-20T06:32:41.337Z,8.10
2023-03-20T06:35:11.961Z,8.10
2023-03-20T06:37:44.500Z,8.10
2023-03-20T06:40:17.116Z,8.10
2023-03-20T06:42:44.919Z,8.20
2023-03-20T06:45:13.359Z,8.20
2023-03-20T06:47:43.874Z,8.20
2023-03-20T06:50:12.164Z,8.20
2023-03-20T06:52:40.082Z,8.30
2023-03-20T06:55:33.811Z,8.30
2023-03-20T06:58:01.556Z,8.30
2023-03-20T07:00:30.280Z,8.40
2023-03-20T07:02:59.423Z,8.40
2023-03-20T07:05:29.079Z,8.40
2023-03-20T07:07:58.897Z,8.40
2023-03-20T07:10:28.349Z,8.50
2023-03-20T07:12:57.378Z,8.50
2023-03-20T07:15:25.204Z,8.50
2023-03-20T07:17:53.248Z,8.50
2023-03-20T07:20:21.738Z,8.50
2023-03-20T07:22:50.830Z,8.60
2023-03-20T07:25:41.977Z,8.60
2023-03-20T07:28:12.594Z,8.60
2023-03-20T07:30:43.874Z,8.60
2023-03-20T07:33:12.199Z,8.70
2023-03-20T07:35:40.718Z,8.70
2023-03-20T07:38:09.449Z,8.70
2023-03-20T07:40:46.514Z,8.80
2023-03-20T07:43:17.180Z,8.80
2023-03-20T07:46:05.635Z,8.90
2023-03-20T07:48:36.366Z,8.90
2023-03-20T07:51:04.411Z,8.90
2023-03-20T07:53:32.710Z,9.00
2023-03-20T07:56:00.293Z,9.00
2023-03-20T07:58:27.832Z,9.00
2023-03-20T08:00:58.244Z,9.10
2023-03-20T08:03:26.069Z,9.00
2023-03-20T08:05:54.649Z,9.10
2023-03-20T08:08:22.584Z,9.20
2023-03-20T08:10:50.183Z,9.20
2023-03-20T08:13:17.816Z,9.20
2023-03-20T08:15:47.409Z,9.30
2023-03-20T08:18:15.340Z,9.30
2023-03-20T08:20:42.949Z,9.40
2023-03-20T08:23:10.640Z,9.50
2023-03-20T08:25:38.732Z,9.50
2023-03-20T08:28:06.598Z,9.60
2023-03-20T08:30:34.192Z,9.70
2023-03-20T08:33:02.226Z,9.70
2023-03-20T08:35:33.616Z,9.80
2023-03-20T08:38:01.809Z,9.80
2023-03-20T08:40:29.736Z,9.90
2023-03-20T08:42:57.763Z,9.90
2023-03-20T08:45:26.351Z,9.90
2023-03-20T08:47:55.045Z,9.90
2023-03-20T08:50:22.732Z,10.00
2023-03-20T08:52:50.622Z,10.00
2023-03-20T08:55:20.031Z,10.10
2023-03-20T08:57:47.948Z,10.20
2023-03-20T09:00:16.768Z,10.30
2023-03-20T09:02:44.397Z,10.40
2023-03-20T09:05:12.485Z,10.70
2023-03-20T09:07:40.342Z,10.70
2023-03-20T09:10:09.028Z,10.90
2023-03-20T09:12:36.724Z,10.90
2023-03-20T09:15:05.920Z,10.90
2023-03-20T09:17:33.532Z,10.90
2023-03-20T09:20:01.533Z,10.90
2023-03-20T09:22:29.202Z,10.90
2023-03-20T09:24:56.782Z,10.90
2023-03-20T09:27:24.497Z,10.90
2023-03-20T09:29:52.062Z,11.00
2023-03-20T09:32:19.688Z,11.10
2023-03-20T09:34:47.435Z,11.50
2023-03-20T09:37:15.044Z,11.50
2023-03-20T09:39:42.623Z,11.70
2023-03-20T09:42:32.080Z,11.80
2023-03-20T09:45:27.324Z,11.90
2023-03-20T09:48:31.151Z,11.90
2023-03-20T09:51:03.390Z,11.80
2023-03-20T09:53:40.834Z,11.70
2023-03-20T09:56:17.626Z,11.70
2023-03-20T09:58:58.930Z,11.70
2023-03-20T10:01:55.889Z,11.80
2023-03-20T10:04:28.629Z,12.00
2023-03-20T10:06:57.061Z,11.90
2023-03-20T10:09:28.069Z,12.10
2023-03-20T10:12:06.765Z,12.20
2023-03-20T10:14:53.260Z,12.50
2023-03-20T10:17:29.856Z,12.60
2023-03-20T10:20:03.652Z,12.70
2023-03-20T10:22:38.202Z,12.80
2023-03-20T10:25:22.852Z,12.80
2023-03-20T10:28:00.664Z,12.90
2023-03-20T10:30:50.738Z,12.90
2023-03-20T10:33:26.870Z,13.10
2023-03-20T10:36:18.434Z,13.40
2023-03-20T10:38:53.448Z,13.60
2023-03-20T10:41:27.877Z,13.70
2023-03-20T10:43:57.730Z,13.80
2023-03-20T10:46:35.594Z,13.90
2023-03-20T10:49:05.017Z,13.90
2023-03-20T10:51:46.354Z,14.00
2023-03-20T10:54:36.785Z,14.40
2023-03-20T10:57:06.812Z,14.30
2023-03-20T10:59:42.253Z,14.50
2023-03-20T11:02:14.504Z,14.70
2023-03-20T11:04:42.198Z,14.90
2023-03-20T11:07:12.687Z,14.90
2023-03-20T11:09:40.563Z,15.00
2023-03-20T11:12:19.562Z,15.00
2023-03-20T11:14:47.201Z,15.10
2023-03-20T11:17:16.827Z,15.10
2023-03-20T11:19:44.468Z,15.20
2023-03-20T11:22:26.379Z,15.20
2023-03-20T11:25:03.622Z,15.10
2023-03-20T11:27:33.520Z,15.10
2023-03-20T11:30:04.709Z,15.30
2023-03-20T11:32:40.713Z,15.60
2023-03-20T11:35:20.550Z,16.10
2023-03-20T11:37:50.614Z,16.50
2023-03-20T11:40:33.856Z,16.60
2023-03-20T11:43:01.523Z,17.70
2023-03-20T11:45:36.168Z,19.50
2023-03-20T11:48:04.888Z,19.70
2023-03-20T11:50:38.376Z,19.30
2023-03-20T11:53:30.433Z,18.90
2023-03-20T11:56:23.856Z,18.30
2023-03-20T11:59:30.836Z,18.20
2023-03-20T12:01:59.325Z,17.50
2023-03-20T12:04:44.036Z,16.80
2023-03-20T12:07:19.492Z,16.60
2023-03-20T12:09:58.280Z,16.60
2023-03-20T12:12:41.164Z,16.70
2023-03-20T12:15:35.471Z,16.70
2023-03-20T12:18:07.267Z,16.70
2023-03-20T12:20:44.376Z,16.70
2023-03-20T12:23:14.733Z,16.70
2023-03-20T12:25:42.272Z,17.00
2023-03-20T12:28:46.763Z,17.00
2023-03-20T12:31:31.488Z,17.00
2023-03-20T12:34:35.167Z,17.30
2023-03-20T12:37:02.891Z,17.50
2023-03-20T12:39:36.505Z,17.60
2023-03-20T12:42:24.968Z,17.90
2023-03-20T12:45:11.821Z,18.20
2023-03-20T12:47:58.375Z,18.30
2023-03-20T12:50:37.710Z,18.50
2023-03-20T12:53:27.341Z,18.60
2023-03-20T12:55:55.120Z,18.80
2023-03-20T12:58:37.369Z,18.60
2023-03-20T13:01:40.421Z,18.20
2023-03-20T13:04:37.965Z,17.30
2023-03-20T13:07:19.464Z,17.30
2023-03-20T13:10:05.948Z,17.10
2023-03-20T13:12:45.932Z,16.90
2023-03-20T13:15:31.493Z,16.90
2023-03-20T13:18:10.092Z,16.90
2023-03-20T13:20:57.120Z,16.80
2023-03-20T13:23:41.650Z,16.80
2023-03-20T13:26:18.331Z,16.90
2023-03-20T13:29:06.808Z,17.00
2023-03-20T13:31:50.082Z,17.00
2023-03-20T13:34:31.842Z,17.00
2023-03-20T13:37:22.019Z,17.10
2023-03-20T13:40:04.647Z,17.30
2023-03-20T13:42:41.388Z,17.70
2023-03-20T13:45:35.021Z,17.90
2023-03-20T13:48:38.829Z,17.90
2023-03-20T13:51:25.528Z,17.70
2023-03-20T13:54:02.145Z,17.50
2023-03-20T13:56:36.658Z,17.30
2023-03-20T13:59:26.892Z,17.10
2023-03-20T14:02:19.908Z,16.80
2023-03-20T14:04:51.740Z,16.70
2023-03-20T14:07:37.612Z,16.60
2023-03-20T14:10:24.169Z,16.60
2023-03-20T14:13:04.967Z,16.60
2023-03-20T14:15:35.226Z,16.70
2023-03-20T14:18:16.848Z,16.80
2023-03-20T14:20:51.745Z,16.90
2023-03-20T14:23:26.627Z,16.90
2023-03-20T14:25:55.188Z,16.80
2023-03-20T14:28:31.556Z,16.70
2023-03-20T14:31:25.773Z,16.60
2023-03-20T14:34:24.736Z,16.40
2023-03-20T14:37:00.939Z,16.20
2023-03-20T14:39:50.899Z,16.20
2023-03-20T14:42:49.354Z,16.30
2023-03-20T14:45:42.640Z,16.30
2023-03-20T14:48:24.980Z,16.30
2023-03-20T14:51:06.365Z,16.10
2023-03-20T14:56:32.034Z,15.80
2023-03-20T14:59:04.275Z,15.70
2023-03-20T15:01:44.402Z,15.60
2023-03-20T15:04:36.111Z,15.60
2023-03-20T15:07:10.909Z,15.50
2023-03-20T15:09:43.632Z,15.60
2023-03-20T15:12:19.244Z,15.50
2023-03-20T15:14:59.998Z,15.40
2023-03-20T15:17:39.774Z,15.40
2023-03-20T15:20:20.968Z,15.40
2023-03-20T15:23:00.336Z,15.30
2023-03-20T15:25:44.238Z,15.30
2023-03-20T15:28:22.738Z,15.30
2023-03-20T15:30:53.546Z,15.30
2023-03-20T15:33:31.316Z,15.30
2023-03-20T15:36:06.916Z,15.30
2023-03-20T15:38:35.425Z,15.30
2023-03-20T15:41:23.971Z,15.20
2023-03-20T15:43:51.929Z,15.10
2023-03-20T15:46:25.672Z,15.00
2023-03-20T15:48:53.278Z,14.90
2023-03-20T15:51:25.882Z,14.90
2023-03-20T15:53:53.774Z,14.90
2023-03-20T15:56:26.010Z,14.90
2023-03-20T15:58:55.744Z,14.80
2023-03-20T16:01:25.776Z,14.80
2023-03-20T16:03:58.159Z,14.80
2023-03-20T16:06:26.686Z,14.70
2023-03-20T16:09:09.351Z,14.70
2023-03-20T16:11:42.780Z,14.70
2023-03-20T16:14:16.376Z,14.70
2023-03-20T16:16:47.075Z,14.60
2023-03-20T16:19:15.242Z,14.60
2023-03-20T16:22:25.885Z,14.50
2023-03-20T16:24:58.116Z,14.40
2023-03-20T16:27:34.629Z,14.40
2023-03-20T16:30:14.247Z,14.30
2023-03-20T16:32:47.104Z,14.20
2023-03-20T16:35:26.276Z,14.10
2023-03-20T16:38:02.586Z,14.10
2023-03-20T16:40:36.233Z,14.00
2023-03-20T16:43:17.575Z,14.00
2023-03-20T16:45:49.267Z,13.90
2023-03-20T16:48:16.827Z,13.90
2023-03-20T16:50:48.434Z,13.80
2023-03-20T16:53:21.634Z,13.80
2023-03-20T16:55:56.326Z,13.70
2023-03-20T16:58:27.930Z,13.70
2023-03-20T17:01:06.220Z,13.60
2023-03-20T17:03:44.435Z,13.50
2023-03-20T17:06:21.645Z,13.40
2023-03-20T17:09:32.686Z,13.40
2023-03-20T17:12:18.744Z,13.30
2023-03-20T17:14:46.567Z,13.10
2023-03-20T17:17:19.349Z,13.10
2023-03-20T17:19:49.898Z,13.10
2023-03-20T17:22:17.409Z,13.00
2023-03-20T17:24:45.191Z,12.90
2023-03-20T17:27:14.536Z,12.90
2023-03-20T17:29:42.626Z,12.90
2023-03-20T17:32:16.048Z,12.90
2023-03-20T17:34:44.170Z,12.90
2023-03-20T17:37:14.653Z,12.90
2023-03-20T17:39:42.649Z,12.90
2023-03-20T17:42:35.013Z,12.90
2023-03-20T17:45:05.644Z,12.90
2023-03-20T17:47:33.253Z,12.90
2023-03-20T17:50:01.202Z,12.80
2023-03-20T17:52:29.345Z,12.80
2023-03-20T17:54:57.015Z,12.80
2023-03-20T17:57:28.409Z,12.80
2023-03-20T17:59:56.462Z,12.80
2023-03-20T18:02:24.051Z,12.80
2023-03-20T18:04:52.159Z,15.70
2023-03-20T18:07:20.587Z,12.70
2023-03-20T18:09:49.275Z,12.70
2023-03-20T18:12:18.521Z,12.80
2023-03-20T18:14:46.746Z,12.70
2023-03-20T18:17:15.819Z,12.70
2023-03-20T18:19:44.797Z,12.70
2023-03-20T18:22:12.641Z,12.70
2023-03-20T18:24:43.365Z,12.60
2023-03-20T18:27:12.594Z,12.50
2023-03-20T18:29:40.891Z,12.40
2023-03-20T18:32:09.307Z,12.40
2023-03-20T18:34:36.936Z,12.40
2023-03-20T18:37:08.081Z,12.30
2023-03-20T18:39:35.729Z,12.30
2023-03-20T18:42:03.644Z,12.30
2023-03-20T18:44:31.260Z,12.20
2023-03-20T18:46:58.786Z,12.10
2023-03-20T18:49:26.492Z,12.10
2023-03-20T18:51:54.258Z,12.10
2023-03-20T18:54:21.944Z,12.00
2023-03-20T18:56:50.928Z,12.00
2023-03-20T18:59:19.539Z,12.00
2023-03-20T19:01:48.662Z,12.00
2023-03-20T19:04:17.047Z,11.90
2023-03-20T19:06:45.097Z,11.90
2023-03-20T19:09:12.820Z,11.90
2023-03-20T19:11:40.332Z,11.90
2023-03-20T19:14:08.144Z,11.80
2023-03-20T19:16:38.048Z,11.80
2023-03-20T19:19:07.915Z,11.80
2023-03-20T19:21:36.001Z,11.80
2023-03-20T19:24:06.313Z,11.80
2023-03-20T19:26:36.489Z,11.70
2023-03-20T19:29:10.128Z,11.70
2023-03-20T19:31:37.810Z,11.70
2023-03-20T19:34:06.780Z,11.70
2023-03-20T19:36:37.435Z,11.70
2023-03-20T19:39:07.459Z,11.70
2023-03-20T19:41:35.413Z,11.70
2023-03-20T19:44:03.523Z,11.70
2023-03-20T19:46:40.749Z,11.70
2023-03-20T19:49:30.652Z,11.70
2023-03-20T19:51:59.860Z,11.70
2023-03-20T19:54:31.921Z,11.70
2023-03-20T19:57:01.062Z,11.70
2023-03-20T19:59:32.773Z,11.70
2023-03-20T20:02:01.907Z,11.70
2023-03-20T20:04:29.896Z,11.70
2023-03-20T20:07:33.666Z,11.70
2023-03-20T20:09:45.247Z,11.70
2023-03-20T20:12:12.996Z,11.70
2023-03-20T20:14:40.624Z,11.60
2023-03-20T20:17:08.293Z,11.70
2023-03-20T20:19:36.230Z,11.70
2023-03-20T20:22:24.386Z,11.70
2023-03-20T20:24:51.514Z,11.70
2023-03-20T20:27:19.260Z,11.60
2023-03-20T20:29:49.139Z,11.60
2023-03-20T20:32:18.988Z,11.60
2023-03-20T20:38:31.040Z,11.60
2023-03-20T20:40:26.128Z,11.60
2023-03-20T20:42:56.289Z,11.60
2023-03-20T20:45:26.758Z,11.60
2023-03-20T20:47:54.804Z,11.60
2023-03-20T20:50:25.738Z,11.60
2023-03-20T20:52:57.708Z,11.60
2023-03-20T20:55:25.711Z,11.60
2023-03-20T20:57:55.709Z,11.50
2023-03-20T21:00:37.242Z,11.60
2023-03-20T21:03:13.412Z,11.60
2023-03-20T21:05:43.549Z,11.50
2023-03-20T21:08:13.670Z,11.50
2023-03-20T21:10:41.357Z,11.50
2023-03-20T21:13:09.275Z,11.50
2023-03-20T21:15:37.438Z,11.40
2023-03-20T21:18:05.945Z,11.40
2023-03-20T21:20:34.289Z,11.40
2023-03-20T21:23:02.306Z,11.40
2023-03-20T21:25:40.288Z,11.40
2023-03-20T21:28:10.393Z,11.40
2023-03-20T21:30:49.945Z,11.40
2023-03-20T21:33:30.757Z,11.30
2023-03-20T21:35:58.661Z,11.30
2023-03-20T21:41:16.395Z,11.30
2023-03-20T21:43:47.087Z,11.20
2023-03-20T21:46:46.736Z,11.20
2023-03-20T22:01:03.262Z,11.20
2023-03-20T22:09:19.877Z,11.10
2023-03-20T22:17:43.533Z,11.00
2023-03-20T22:26:16.665Z,10.80
2023-03-20T22:37:16.377Z,10.70
2023-03-20T22:39:58.508Z,10.70
2023-03-20T22:45:00.519Z,10.70
2023-03-20T22:47:29.942Z,10.70
2023-03-20T22:49:57.482Z,10.60
2023-03-20T22:52:35.109Z,10.60
2023-03-20T22:55:09.925Z,10.50
2023-03-20T23:00:18.224Z,10.50
2023-03-20T23:02:45.958Z,10.50
2023-03-20T23:05:14.211Z,10.30
2023-03-20T23:07:41.961Z,10.40
2023-03-20T23:10:10.852Z,10.20
2023-03-20T23:12:38.687Z,10.20
2023-03-20T23:15:07.027Z,10.20
2023-03-20T23:17:34.596Z,10.20
2023-03-20T23:20:11.292Z,10.10
2023-03-20T23:22:40.695Z,10.10
2023-03-20T23:25:23.931Z,10.10
2023-03-20T23:27:58.993Z,10.10
2023-03-20T23:30:30.946Z,10.00
2023-03-20T23:33:01.971Z,10.00
2023-03-20T23:35:29.507Z,10.00
2023-03-20T23:37:57.088Z,10.00
2023-03-20T23:40:24.712Z,10.00
2023-03-20T23:42:52.315Z,10.00
2023-03-20T23:45:21.244Z,10.00
2023-03-20T23:47:49.675Z,9.90
2023-03-20T23:53:19.474Z,9.90
2023-03-20T23:55:49.986Z,9.90
2023-03-20T23:58:18.212Z,9.90
